Time;durP1;ratioP1;P1;durP2;ratioP2;P2;SDS_P1;SDS_P2;PMS_P1;PMS_P2;Temp;Humidity;BMP_temperature;BMP_pressure;BME280_temperature;BME280_humidity;BME280_pressure;Samples;Min_cycle;Max_cycle;Signal;HPM_P1;HPM_P2
2023/10/21 00:00:55;;;;;;;;;;;;;;;22.62;59.00;96598.31;135964;1273;22513;-66
2023/10/21 00:04:06;;;;;;;31.60;12.70;;;;;;;22.68;58.72;96604.45;135953;1273;22557;-66
2023/10/21 00:07:08;;;;;;;;;;;;;;;22.74;58.58;96613.55;135985;1273;22565;-65
2023/10/21 00:10:11;;;;;;;35.40;14.50;;;;;;;22.77;58.50;96616.52;135971;1273;25402;-66
2023/10/21 00:13:13;;;;;;;;;;;;;;;22.85;58.13;96621.59;136015;1273;22505;-65
2023/10/21 00:16:15;;;;;;;38.70;15.10;;;;;;;22.72;58.56;96622.00;135975;1273;22545;-66
2023/10/21 00:19:18;;;;;;;;;;;;;;;22.71;58.46;96621.31;135955;1273;22517;-64
2023/10/21 00:22:20;;;;;;;27.60;11.80;;;;;;;22.81;58.19;96622.75;135951;1273;22564;-66
2023/10/21 00:25:23;;;;;;;;;;;;;;;22.75;58.41;96629.08;136003;1263;22616;-66
2023/10/21 00:28:26;;;;;;;31.70;11.50;;;;;;;22.82;58.29;96634.45;135975;1273;23900;-66
2023/10/21 00:31:28;;;;;;;;;;;;;;;22.81;58.38;96644.25;135986;1273;24368;-66
2023/10/21 00:34:30;;;;;;;30.50;11.70;;;;;;;22.79;58.46;96641.48;135962;1273;22538;-66
2023/10/21 00:37:33;;;;;;;;;;;;;;;22.87;58.60;96648.73;135953;1273;22504;-65
2023/10/21 00:40:35;;;;;;;37.80;12.30;;;;;;;23.05;57.75;96643.36;135965;1273;22535;-65
2023/10/21 00:43:38;;;;;;;;;;;;;;;23.05;58.00;96645.35;135989;1273;22528;-66
2023/10/21 00:46:40;;;;;;;;;;;;;;;23.16;57.57;96649.25;136020;1273;22515;-66
2023/10/21 00:49:43;;;;;;;35.80;12.80;;;;;;;23.10;57.85;96648.94;136009;1273;23001;-65
2023/10/21 00:52:46;;;;;;;;;;;;;;;23.00;57.76;96646.48;135937;1273;22551;-67
2023/10/21 00:55:48;;;;;;;32.30;12.30;;;;;;;22.90;57.87;96652.00;135982;1273;22546;-66
2023/10/21 00:58:51;;;;;;;;;;;;;;;22.84;57.88;96659.10;135983;1273;22637;-65
2023/10/21 01:01:53;;;;;;;32.10;11.10;;;;;;;22.83;57.81;96662.44;135977;1251;24436;-66
2023/10/21 01:04:56;;;;;;;;;;;;;;;22.80;57.81;96665.92;135974;1273;22520;-65
2023/10/21 01:07:58;;;;;;;30.40;10.50;;;;;;;22.78;57.86;96674.42;135976;1273;22525;-65
2023/10/21 01:11:00;;;;;;;;;;;;;;;22.76;57.93;96683.94;135956;1273;22634;-64
2023/10/21 01:14:03;;;;;;;27.60;9.40;;;;;;;22.75;57.98;96689.84;135940;1273;22530;-65
2023/10/21 01:17:05;;;;;;;;;;;;;;;22.63;58.18;96687.95;135770;1273;287740;-65
2023/10/21 01:20:09;;;;;;;35.70;10.30;;;;;;;22.60;58.16;96691.48;135998;1273;22630;-65
2023/10/21 01:23:12;;;;;;;33.40;9.90;;;;;;;22.68;58.13;96692.21;135955;1273;22543;-66
2023/10/21 01:26:14;;;;;;;;;;;;;;;22.59;58.30;96695.88;135990;1273;23864;-65
2023/10/21 01:29:17;;;;;;;33.00;11.00;;;;;;;22.52;58.38;96695.06;135974;1273;22579;-65
2023/10/21 01:32:19;;;;;;;;;;;;;;;22.55;58.32;96699.89;135940;1272;22491;-65
2023/10/21 01:35:22;;;;;;;33.10;10.80;;;;;;;22.56;58.33;96701.76;135976;1273;22531;-65
2023/10/21 01:38:24;;;;;;;31.50;9.20;;;;;;;22.53;58.31;96704.09;135978;1273;22534;-65
2023/10/21 01:41:27;;;;;;;;;;;;;;;22.53;58.25;96703.52;136002;1273;25922;-66
2023/10/21 01:44:29;;;;;;;29.50;9.40;;;;;;;22.56;58.22;96716.67;135959;1273;22540;-65
2023/10/21 01:47:31;;;;;;;35.90;9.80;;;;;;;22.53;58.34;96713.05;136003;1273;22535;-65
2023/10/21 01:50:34;;;;;;;;;;;;;;;22.56;58.61;96719.52;136020;1273;22510;-65
2023/10/21 01:53:36;;;;;;;36.70;11.30;;;;;;;22.68;58.50;96718.48;135984;1273;22542;-66
2023/10/21 01:56:39;;;;;;;;;;;;;;;22.70;58.54;96714.98;136008;1273;22511;-61
2023/10/21 01:59:41;;;;;;;32.40;10.90;;;;;;;22.78;58.20;96717.83;135972;1273;23932;-66
2023/10/21 02:02:43;;;;;;;;;;;;;;;22.90;57.80;96725.01;136010;1273;24362;-66
2023/10/21 02:05:46;;;;;;;35.90;10.30;;;;;;;23.01;57.45;96729.32;136028;1273;22565;-65
2023/10/21 02:08:48;;;;;;;29.00;9.80;;;;;;;22.90;57.74;96728.85;135984;1272;26627;-66
2023/10/21 02:11:51;;;;;;;;;;;;;;;22.90;57.68;96734.39;135994;1273;22495;-66
2023/10/21 02:14:53;;;;;;;41.50;14.20;;;;;;;22.94;57.57;96728.58;136041;1273;22557;-64
2023/10/21 02:17:56;;;;;;;28.20;9.70;;;;;;;22.98;57.42;96727.44;136004;1273;22539;-65
2023/10/21 02:20:58;;;;;;;;;;;;;;;22.87;57.62;96728.13;136002;1273;22521;-65
2023/10/21 02:24:00;;;;;;;32.00;10.40;;;;;;;23.00;57.39;96727.04;136003;1273;24393;-65
2023/10/21 02:27:03;;;;;;;;;;;;;;;23.05;57.23;96735.54;135991;1273;22511;-64
2023/10/21 02:30:05;;;;;;;34.10;11.10;;;;;;;23.05;57.32;96737.63;136022;1273;22524;-64
2023/10/21 02:33:08;;;;;;;;;;;;;;;23.12;57.06;96743.33;135945;1254;22538;-66
2023/10/21 02:36:10;;;;;;;36.60;10.40;;;;;;;23.11;56.83;96747.49;136010;1273;22531;-65
2023/10/21 02:39:13;;;;;;;34.20;10.60;;;;;;;22.92;57.28;96757.61;135982;1273;22557;-64
2023/10/21 02:42:15;;;;;;;36.10;10.10;;;;;;;22.85;57.54;96760.06;136050;1272;25487;-65
2023/10/21 02:45:18;;;;;;;;;;;;;;;22.86;57.30;96765.77;136052;1273;24215;-65
2023/10/21 02:48:20;;;;;;;26.00;9.10;;;;;;;22.81;57.45;96759.54;136024;1273;22524;-65
2023/10/21 02:51:22;;;;;;;;;;;;;;;22.72;57.20;96758.14;136034;1273;22508;-65
2023/10/21 02:54:25;;;;;;;32.70;9.40;;;;;;;22.60;57.58;96757.84;135935;1273;22544;-66
2023/10/21 02:57:29;;;;;;;34.30;10.80;;;;;;;22.68;57.67;96765.83;135970;1273;26665;-65
2023/10/21 03:00:31;;;;;;;32.40;10.00;;;;;;;22.78;57.59;96765.48;135953;1273;23871;-66
2023/10/21 03:03:33;;;;;;;;;;;;;;;22.76;57.50;96761.52;135992;1273;24138;-65
2023/10/21 03:06:36;;;;;;;31.50;11.20;;;;;;;22.80;57.42;96760.57;135935;1273;22527;-66
2023/10/21 03:09:39;;;;;;;33.60;10.10;;;;;;;22.80;57.28;96757.44;135926;1273;22527;-66
2023/10/21 03:12:41;;;;;;;;;;;;;;;22.73;57.22;96763.56;136000;1273;22611;-66
2023/10/21 03:15:43;;;;;;;36.60;11.20;;;;;;;22.89;56.75;96768.25;135975;1273;22551;-64
2023/10/21 03:18:46;;;;;;;;;;;;;;;22.92;56.76;96776.36;136019;1273;22514;-67
2023/10/21 03:21:49;;;;;;;;;;;;;;;22.85;56.78;96781.30;135979;1273;22533;-66
2023/10/21 03:24:51;;;;;;;29.30;9.10;;;;;;;22.64;57.28;96784.73;136035;1273;22513;-66
2023/10/21 03:27:54;;;;;;;;;;;;;;;22.55;57.82;96783.42;136037;1273;22500;-64
2023/10/21 03:30:56;;;;;;;29.40;9.70;;;;;;;22.58;57.89;96784.50;135996;1273;22595;-65
2023/10/21 03:33:59;;;;;;;35.60;10.20;;;;;;;22.59;58.06;96788.40;135979;1273;22527;-65
2023/10/21 03:37:01;;;;;;;31.20;10.10;;;;;;;22.67;57.84;96788.15;135992;1273;22530;-66
2023/10/21 03:40:05;;;;;;;;;;;;;;;22.69;57.83;96798.62;135973;1273;22552;-64
2023/10/21 03:43:08;;;;;;;31.80;10.70;;;;;;;22.77;57.66;96803.19;135986;1273;22666;-66
2023/10/21 03:46:14;;;;;;;33.70;11.40;;;;;;;22.75;57.68;96807.24;135999;1273;22537;-65
2023/10/21 03:49:17;;;;;;;29.30;10.10;;;;;;;22.71;57.55;96814.23;135978;1273;22535;-65
2023/10/21 03:52:20;;;;;;;31.90;9.60;;;;;;;22.77;57.40;96811.58;135993;1273;22544;-64
2023/10/21 03:55:22;;;;;;;;;;;;;;;22.84;57.21;96808.21;135977;1256;22514;-65
2023/10/21 03:58:25;;;;;;;32.40;8.70;;;;;;;22.81;57.34;96813.26;136002;1273;22547;-65
2023/10/21 04:01:27;;;;;;;33.40;10.10;;;;;;;22.87;57.12;96827.39;77004;1273;1005323;-65
2023/10/21 04:04:30;;;;;;;38.40;10.20;;;;;;;22.92;56.97;96828.29;67978;1273;1016499;-66
2023/10/21 04:07:32;;;;;;;31.80;8.90;;;;;;;22.86;57.30;96832.58;67952;1273;1016333;-66
2023/10/21 04:10:34;;;;;;;31.40;8.70;;;;;;;22.88;57.37;96829.19;67923;1273;1016242;-66
2023/10/21 04:13:37;;;;;;;34.20;8.90;;;;;;;22.94;57.12;96820.86;67948;1273;1016931;-65
2023/10/21 04:16:44;;;;;;;35.60;8.80;;;;;;;22.96;57.00;96812.30;67910;1273;1016592;-66
2023/10/21 04:19:46;;;;;;;32.60;8.30;;;;;;;22.94;56.97;96820.53;67884;1273;1016350;-66
2023/10/21 04:22:49;;;;;;;31.40;9.30;;;;;;;23.02;57.08;96827.23;67912;1273;1018856;-66
2023/10/21 04:25:51;;;;;;;40.30;9.80;;;;;;;23.03;57.17;96831.14;67990;1273;1016455;-66
2023/10/21 04:28:55;;;;;;;32.10;9.90;;;;;;;23.14;56.91;96831.70;67925;1273;1017154;-66
2023/10/21 04:31:58;;;;;;;33.00;8.50;;;;;;;23.22;56.65;96829.06;67950;1273;1016634;-66
2023/10/21 04:35:00;;;;;;;28.80;8.30;;;;;;;22.87;57.62;96828.71;67909;1273;1016247;-65
2023/10/21 04:38:03;;;;;;;31.20;8.50;;;;;;;22.76;57.97;96818.98;67899;1273;1016048;-64
2023/10/21 04:41:07;;;;;;;34.90;9.20;;;;;;;22.75;57.98;96820.55;67948;1273;1016471;-66
2023/10/21 04:44:09;;;;;;;29.00;8.20;;;;;;;22.78;57.89;96829.66;67932;1273;1016206;-66
2023/10/21 04:47:11;;;;;;;31.10;9.30;;;;;;;22.92;57.63;96843.95;67941;1273;1019117;-65
2023/10/21 04:50:14;;;;;;;31.60;9.30;;;;;;;22.94;57.49;96845.99;67966;1273;1018816;-65
2023/10/21 04:53:17;;;;;;;30.30;8.60;;;;;;;23.06;57.41;96856.45;67976;1273;1016234;-66
2023/10/21 04:56:20;;;;;;;30.10;7.70;;;;;;;23.25;56.83;96862.27;67924;1273;1016521;-66
2023/10/21 04:59:22;;;;;;;29.10;8.10;;;;;;;23.25;56.88;96868.98;67965;1273;1016426;-66
2023/10/21 05:02:24;;;;;;;;;;;;;;;23.32;56.83;96882.80;67935;1273;1016038;-65
2023/10/21 05:05:27;;;;;;;34.90;8.70;;;;;;;23.35;56.93;96889.09;67918;1273;1018081;-66
2023/10/21 05:08:30;;;;;;;31.80;7.90;;;;;;;23.32;56.93;96891.38;67901;1273;1018105;-65
2023/10/21 05:11:32;;;;;;;33.80;9.10;;;;;;;23.40;56.97;96907.16;67950;1273;1016447;-66
2023/10/21 05:14:35;;;;;;;39.00;8.40;;;;;;;23.51;56.67;96914.88;67943;1273;1016448;-65
2023/10/21 05:17:37;;;;;;;30.40;7.40;;;;;;;23.52;56.74;96915.06;67885;1273;1015928;-64
2023/10/21 05:20:40;;;;;;;30.20;8.10;;;;;;;23.62;56.49;96938.67;67905;1273;1019964;-65
2023/10/21 05:23:42;;;;;;;;;;;;;;;23.68;56.50;96950.05;67956;1273;1016292;-64
2023/10/21 05:26:45;;;;;;;30.70;7.70;;;;;;;23.76;56.18;96954.60;67967;1273;1016341;-66
2023/10/21 05:29:47;;;;;;;30.40;8.40;;;;;;;23.65;56.23;96950.11;67917;1273;1016457;-65
2023/10/21 05:32:50;;;;;;;29.60;7.90;;;;;;;23.52;56.27;96950.06;67944;1273;1016282;-66
2023/10/21 05:35:52;;;;;;;;;;;;;;;23.56;56.46;96959.05;67989;1273;1016404;-66
2023/10/21 05:38:55;;;;;;;;;;;;;;;23.52;56.74;96964.83;67967;1273;1016385;-65
2023/10/21 05:41:57;;;;;;;30.30;7.60;;;;;;;23.61;56.73;96971.07;67912;1273;1016404;-65
2023/10/21 05:45:00;;;;;;;29.80;7.80;;;;;;;23.63;56.67;96975.01;67961;1273;1016349;-66
2023/10/21 05:48:02;;;;;;;;;;;;;;;23.63;56.72;96981.63;68042;1273;1016310;-66
2023/10/21 05:51:05;;;;;;;34.10;8.50;;;;;;;23.76;56.39;96989.80;68010;1273;1016476;-65
2023/10/21 05:54:07;;;;;;;28.40;7.10;;;;;;;23.89;56.02;97004.48;67970;1273;1016495;-66
2023/10/21 05:57:10;;;;;;;29.80;7.80;;;;;;;23.81;56.36;97013.76;67931;1273;1016516;-66
2023/10/21 06:00:13;;;;;;;33.80;7.30;;;;;;;23.88;55.98;97019.97;67987;1273;1016369;-66
2023/10/21 06:03:15;;;;;;;26.30;7.10;;;;;;;23.83;56.20;97012.09;67966;1273;1015837;-65
2023/10/21 06:06:18;;;;;;;;;;;;;;;23.78;55.76;97005.02;67949;1273;1016609;-66
2023/10/21 06:09:21;;;;;;;31.60;7.60;;;;;;;23.64;56.28;97009.82;68004;1273;1016400;-66
2023/10/21 06:12:24;;;;;;;29.20;7.90;;;;;;;23.72;56.46;97021.06;67980;1273;1015800;-66
2023/10/21 06:15:26;;;;;;;30.30;7.80;;;;;;;23.86;56.23;97023.19;67982;1273;1016453;-65
2023/10/21 06:18:28;;;;;;;;;;;;;;;24.13;55.70;97026.20;67981;1273;1016313;-66
2023/10/21 06:21:31;;;;;;;28.20;7.30;;;;;;;24.32;55.47;97019.75;68007;1273;1017917;-64
2023/10/21 06:24:33;;;;;;;29.80;8.60;;;;;;;24.50;55.08;97019.71;67977;1273;1016394;-66
2023/10/21 06:27:36;;;;;;;34.40;11.20;;;;;;;24.65;54.90;97024.88;68004;1273;1016352;-66
2023/10/21 06:30:40;;;;;;;42.00;14.60;;;;;;;24.58;55.19;97023.91;67973;1273;1015754;-65
2023/10/21 06:33:43;;;;;;;34.70;8.40;;;;;;;24.60;55.20;97038.52;68025;1273;1016374;-65
2023/10/21 06:36:45;;;;;;;32.10;8.80;;;;;;;24.58;55.62;97046.27;67983;1273;1018451;-64
2023/10/21 06:39:48;;;;;;;29.00;7.50;;;;;;;24.79;55.18;97044.46;67963;1273;1018105;-65
2023/10/21 06:42:50;;;;;;;32.40;9.00;;;;;;;24.89;55.01;97049.20;67966;1273;1016387;-65
2023/10/21 06:45:53;;;;;;;31.10;7.40;;;;;;;24.94;54.99;97053.86;68001;1273;1016167;-65
2023/10/21 06:48:55;;;;;;;28.30;7.70;;;;;;;24.99;54.86;97061.92;67991;1273;1016417;-65
2023/10/21 06:51:58;;;;;;;31.70;7.70;;;;;;;24.93;55.28;97062.73;67979;1273;1020169;-64
2023/10/21 06:55:01;;;;;;;35.00;8.80;;;;;;;25.11;54.90;97066.48;67980;1273;1016486;-64
2023/10/21 06:58:04;;;;;;;31.80;8.20;;;;;;;25.29;54.47;97061.94;67973;1273;1016703;-65
2023/10/21 07:01:06;;;;;;;30.90;8.30;;;;;;;25.39;54.38;97061.60;67948;1273;1016474;-65
2023/10/21 07:04:10;;;;;;;31.50;7.50;;;;;;;25.42;54.33;97070.80;67941;1273;1016522;-65
2023/10/21 07:07:12;;;;;;;34.30;7.90;;;;;;;25.51;54.65;97078.91;67921;1273;1016371;-65
2023/10/21 07:10:15;;;;;;;36.50;7.60;;;;;;;25.59;54.57;97085.69;67927;1251;1016438;-65
2023/10/21 07:13:17;;;;;;;28.70;6.80;;;;;;;25.72;54.70;97089.80;67974;1273;1016322;-63
2023/10/21 07:16:20;;;;;;;29.90;8.10;;;;;;;25.89;54.36;97087.24;67983;1273;1016469;-65
2023/10/21 07:19:22;;;;;;;;;;;;;;;26.03;53.94;97087.08;67924;1273;1018961;-65
2023/10/21 07:22:24;;;;;;;41.80;10.60;;;;;;;26.13;53.58;97096.17;67922;1273;1016065;-65
2023/10/21 07:25:27;;;;;;;;;;;;;;;26.25;53.32;97103.79;67966;1273;1016288;-65
2023/10/21 07:28:30;;;;;;;33.40;7.60;;;;;;;26.21;53.45;97117.34;67979;1273;1016391;-64
2023/10/21 07:31:33;;;;;;;29.10;8.00;;;;;;;26.30;53.17;97122.33;67934;1273;1016451;-65
2023/10/21 07:34:36;;;;;;;33.50;8.00;;;;;;;26.27;52.98;97131.33;67958;1273;1016375;-65
2023/10/21 07:37:38;;;;;;;33.70;7.90;;;;;;;26.32;53.08;97143.60;67914;1273;1016384;-65
2023/10/21 07:40:41;;;;;;;;;;;;;;;26.32;52.99;97146.77;67965;1273;1016173;-66
2023/10/21 07:43:43;;;;;;;34.70;9.10;;;;;;;26.26;53.04;97140.02;67938;1273;1017818;-66
2023/10/21 07:46:45;;;;;;;;;;;;;;;26.35;52.77;97144.52;67987;1273;1018869;-66
2023/10/21 07:49:50;;;;;;;35.20;8.70;;;;;;;26.41;52.65;97142.49;67964;1273;1016849;-66
2023/10/21 07:52:53;;;;;;;36.40;9.30;;;;;;;26.46;52.43;97151.59;67908;1273;1016474;-66
2023/10/21 07:55:55;;;;;;;29.50;8.00;;;;;;;26.41;52.91;97158.56;67981;1273;1016183;-66
2023/10/21 07:59:01;;;;;;;;;;;;;;;26.56;52.54;97160.11;67985;1273;1017830;-65
2023/10/21 08:02:06;;;;;;;31.10;8.10;;;;;;;26.63;52.15;97152.09;67955;1273;1016442;-65
2023/10/21 08:05:08;;;;;;;;;;;;;;;26.55;52.00;97154.73;67925;1273;1017117;-65
2023/10/21 08:08:11;;;;;;;34.80;8.40;;;;;;;26.57;52.15;97157.50;67923;1273;1017936;-65
2023/10/21 08:11:13;;;;;;;35.50;8.30;;;;;;;26.64;52.27;97157.48;67972;1273;1016860;-65
2023/10/21 08:14:16;;;;;;;;;;;;;;;26.65;52.30;97167.61;67975;1273;1015985;-65
2023/10/21 08:17:18;;;;;;;34.30;8.20;;;;;;;26.90;51.60;97172.17;67951;1273;1017993;-65
2023/10/21 08:20:21;;;;;;;39.30;8.40;;;;;;;26.92;51.43;97179.86;67922;1273;1016438;-65
2023/10/21 08:23:23;;;;;;;;;;;;;;;26.78;51.63;97191.99;67956;1273;1019418;-65
2023/10/21 08:26:28;;;;;;;40.40;7.90;;;;;;;26.88;51.31;97197.46;67935;1273;1016508;-64
2023/10/21 08:29:31;;;;;;;43.10;8.70;;;;;;;26.91;51.42;97202.64;67940;1273;1018734;-65
2023/10/21 08:32:33;;;;;;;43.30;9.00;;;;;;;27.06;51.06;97204.50;67955;1273;1016488;-65
2023/10/21 08:35:35;;;;;;;32.30;8.50;;;;;;;27.12;50.89;97214.34;67943;1273;1016459;-66
2023/10/21 08:38:38;;;;;;;;;;;;;;;27.14;50.80;97219.67;67996;1273;1016426;-65
2023/10/21 08:41:40;;;;;;;37.00;9.40;;;;;;;27.14;51.27;97232.21;67966;1273;1018776;-65
2023/10/21 08:44:43;;;;;;;38.80;11.90;;;;;;;27.22;50.81;97235.90;67928;1273;1016424;-65
2023/10/21 08:47:45;;;;;;;39.70;13.80;;;;;;;27.04;50.79;97243.40;67934;1273;1016711;-63
2023/10/21 08:50:49;;;;;;;41.10;13.90;;;;;;;27.11;50.61;97245.86;67974;1273;1016415;-65
2023/10/21 08:53:52;;;;;;;33.80;8.90;;;;;;;27.35;49.60;97253.80;67945;1273;1016251;-66
2023/10/21 08:56:54;;;;;;;34.40;9.20;;;;;;;27.39;49.56;97248.53;67960;1273;1016442;-66
2023/10/21 08:59:57;;;;;;;35.60;9.50;;;;;;;27.29;49.79;97256.77;67974;1273;1016171;-65
2023/10/21 09:03:01;;;;;;;35.20;8.50;;;;;;;27.31;49.74;97256.50;67918;1273;1016174;-66
2023/10/21 09:06:05;;;;;;;28.60;7.80;;;;;;;27.34;49.32;97262.10;67940;1273;1016420;-66
2023/10/21 09:09:08;;;;;;;33.70;8.00;;;;;;;27.34;49.07;97276.83;67917;1273;1016722;-66
2023/10/21 09:12:11;;;;;;;33.60;8.00;;;;;;;27.24;49.23;97291.96;67979;1273;1016485;-65
2023/10/21 09:15:13;;;;;;;32.30;8.40;;;;;;;27.06;49.41;97307.60;67938;1273;1015750;-65
2023/10/21 09:18:16;;;;;;;32.90;8.10;;;;;;;27.04;49.89;97315.89;67951;1273;1016449;-63
2023/10/21 09:21:18;;;;;;;34.40;8.20;;;;;;;27.38;49.58;97316.39;67986;1273;1017341;-65
2023/10/21 09:24:21;;;;;;;31.80;7.70;;;;;;;27.59;49.31;97321.49;67939;1273;1016168;-66
2023/10/21 09:27:24;;;;;;;33.90;8.90;;;;;;;27.47;49.24;97324.39;67928;1273;1016068;-65
2023/10/21 09:30:26;;;;;;;33.00;7.60;;;;;;;27.52;48.56;97321.67;67950;1273;1016218;-66
2023/10/21 09:33:30;;;;;;;35.20;8.10;;;;;;;27.47;48.89;97325.08;67982;1272;1016426;-65
2023/10/21 09:36:32;;;;;;;32.50;7.90;;;;;;;27.39;48.79;97325.64;67966;1250;1015974;-64
2023/10/21 09:39:37;;;;;;;33.40;6.90;;;;;;;27.38;49.67;97326.67;67980;1272;1016467;-66
2023/10/21 09:42:41;;;;;;;41.30;8.50;;;;;;;27.47;49.00;97330.58;67906;1273;1016159;-66
2023/10/21 09:45:44;;;;;;;30.70;7.30;;;;;;;27.66;49.34;97315.96;67907;1273;1016635;-66
2023/10/21 09:48:46;;;;;;;28.40;6.90;;;;;;;27.93;48.85;97320.23;67971;1273;1016394;-66
2023/10/21 09:51:49;;;;;;;28.80;7.30;;;;;;;27.98;48.70;97323.95;67967;1273;1016316;-65
2023/10/21 09:54:51;;;;;;;30.80;7.80;;;;;;;27.82;48.19;97323.38;67962;1273;1016153;-66
2023/10/21 09:57:54;;;;;;;32.40;7.60;;;;;;;27.63;48.66;97325.73;67930;1273;1016204;-65
2023/10/21 10:00:56;;;;;;;28.00;7.00;;;;;;;27.43;48.76;97323.40;67896;1273;1016458;-66
2023/10/21 10:04:00;;;;;;;27.30;6.90;;;;;;;27.44;48.67;97324.12;67901;1273;1016664;-66
2023/10/21 10:07:06;;;;;;;30.00;7.40;;;;;;;27.52;48.28;97326.58;67982;1273;1018122;-66
2023/10/21 10:10:11;;;;;;;26.40;6.00;;;;;;;27.58;48.31;97329.66;67971;1273;1016312;-65
2023/10/21 10:13:13;;;;;;;27.50;6.10;;;;;;;27.44;47.75;97343.88;67947;1273;1016410;-65
2023/10/21 10:16:15;;;;;;;25.00;6.00;;;;;;;27.37;47.98;97357.89;67928;1273;1016544;-65
2023/10/21 10:19:18;;;;;;;28.30;5.60;;;;;;;27.39;48.40;97360.66;67953;1273;1019497;-65
2023/10/21 10:22:20;;;;;;;26.50;6.40;;;;;;;27.42;48.09;97369.23;67932;1273;1016455;-65
2023/10/21 10:25:23;;;;;;;28.10;6.00;;;;;;;27.63;48.25;97363.21;67934;1273;1016339;-66
2023/10/21 10:28:26;;;;;;;25.40;5.50;;;;;;;27.65;47.80;97367.11;67987;1273;1017725;-65
2023/10/21 10:31:29;;;;;;;24.80;4.90;;;;;;;27.64;47.63;97368.17;67927;1273;1016341;-63
2023/10/21 10:34:31;;;;;;;24.10;5.10;;;;;;;27.48;47.43;97372.59;67971;1273;1016499;-64
2023/10/21 10:37:34;;;;;;;29.80;6.30;;;;;;;27.43;47.84;97380.55;67973;1273;1016586;-65
2023/10/21 10:40:38;;;;;;;24.80;5.90;;;;;;;27.71;48.13;97376.11;67902;1273;1016240;-66
2023/10/21 10:43:41;;;;;;;27.90;5.60;;;;;;;27.84;47.56;97383.36;67921;1273;1016820;-62
2023/10/21 10:46:43;;;;;;;26.60;5.80;;;;;;;27.91;47.84;97386.21;67929;1273;1015989;-64
2023/10/21 10:49:46;;;;;;;26.20;5.80;;;;;;;28.10;47.06;97377.16;67967;1273;1016271;-62
2023/10/21 10:52:48;;;;;;;28.90;5.90;;;;;;;28.46;47.27;97384.89;67944;1273;1016465;-64
2023/10/21 10:55:53;;;;;;;29.40;6.60;;;;;;;28.82;46.30;97394.02;67922;1273;1016470;-65
2023/10/21 10:58:56;;;;;;;25.00;5.80;;;;;;;29.09;45.65;97403.00;67969;1273;1016019;-63
2023/10/21 11:01:58;;;;;;;31.90;7.00;;;;;;;29.17;45.39;97394.41;67925;1273;1016201;-62
2023/10/21 11:05:01;;;;;;;24.50;5.20;;;;;;;29.19;45.57;97400.34;67920;1273;1016692;-64
2023/10/21 11:08:04;;;;;;;25.90;5.00;;;;;;;29.30;45.33;97400.71;67937;1273;1016252;-65
2023/10/21 11:11:10;;;;;;;23.10;5.00;;;;;;;28.98;45.54;97409.64;67905;1273;1016267;-61
2023/10/21 11:14:13;;;;;;;26.50;5.40;;;;;;;28.73;45.47;97423.05;67863;1273;1016418;-64
2023/10/21 11:17:17;;;;;;;24.80;5.50;;;;;;;28.71;45.52;97424.70;67952;1273;1016459;-63
2023/10/21 11:20:20;;;;;;;24.90;5.80;;;;;;;28.88;46.21;97420.85;68778;1273;1016572;-64
2023/10/21 11:23:23;;;;;;;22.00;5.10;;;;;;;29.19;45.44;97419.11;68214;1273;1016695;-62
2023/10/21 11:26:26;;;;;;;23.50;5.10;;;;;;;29.47;44.04;97430.92;67945;1273;1016406;-63
2023/10/21 11:29:28;;;;;;;21.60;4.90;;;;;;;29.32;43.28;97442.11;67954;1273;1016357;-62
2023/10/21 11:32:30;;;;;;;22.20;4.70;;;;;;;29.52;43.78;97434.16;67975;1273;1017455;-65
2023/10/21 11:35:34;;;;;;;21.70;4.70;;;;;;;29.78;43.96;97438.43;67935;1273;1016175;-62
2023/10/21 11:38:37;;;;;;;26.10;4.60;;;;;;;29.58;42.40;97456.64;67887;1267;1016233;-71
2023/10/21 11:41:39;;;;;;;21.10;5.00;;;;;;;29.16;43.29;97451.04;67904;1273;1016382;-71
2023/10/21 11:44:41;;;;;;;19.60;4.20;;;;;;;29.51;43.33;97458.56;67911;1273;1016454;-71
2023/10/21 11:47:44;;;;;;;25.30;4.70;;;;;;;29.67;42.62;97461.91;67928;1273;1016307;-64
2023/10/21 11:50:47;;;;;;;21.60;4.00;;;;;;;29.31;42.65;97463.85;67913;1273;1016363;-72
2023/10/21 11:53:50;;;;;;;18.60;3.80;;;;;;;28.93;43.52;97472.70;67879;1273;1016239;-66
2023/10/21 11:57:00;;;;;;;25.70;5.20;;;;;;;28.31;43.86;97484.91;67875;1251;1015814;-67
2023/10/21 12:13:47;;;;;;;24.80;5.30;;;;;;;28.89;44.40;97484.67;67946;1273;1016807;-79
2023/10/21 12:17:04;;;;;;;24.50;5.70;;;;;;;29.22;44.59;97497.71;67895;1273;1016325;-68
2023/10/21 12:28:12;;;;;;;27.70;5.30;;;;;;;29.27;43.11;97509.68;67742;1279;1016495;-68
2023/10/21 12:34:37;;;;;;;20.80;4.30;;;;;;;29.08;43.60;97519.45;68572;1273;1015869;-68
2023/10/21 12:41:25;;;;;;;25.80;5.10;;;;;;;29.37;42.97;97534.85;67927;1273;1016368;-67
2023/10/21 12:44:31;;;;;;;25.80;5.00;;;;;;;29.47;43.08;97538.95;67901;1273;1016116;-67
2023/10/21 12:47:33;;;;;;;23.60;4.60;;;;;;;29.45;43.28;97547.27;67855;1273;1016436;-68
2023/10/21 12:50:36;;;;;;;27.80;5.20;;;;;;;29.50;43.11;97550.16;67888;1273;1016577;-68
2023/10/21 12:53:38;;;;;;;24.20;4.90;;;;;;;29.49;42.88;97552.54;67928;1273;1015833;-68
2023/10/21 12:56:41;;;;;;;26.20;5.40;;;;;;;29.54;42.85;97553.41;67873;1273;1017872;-68
2023/10/21 12:59:43;;;;;;;23.40;5.50;;;;;;;29.61;42.74;97557.41;67921;1273;1016394;-68
2023/10/21 13:02:46;;;;;;;31.20;5.80;;;;;;;29.62;42.99;97556.02;67919;1273;1016162;-68
2023/10/21 13:05:52;;;;;;;26.00;5.10;;;;;;;29.67;43.21;97561.83;67873;1273;1016083;-68
2023/10/21 13:08:55;;;;;;;24.30;5.80;;;;;;;29.81;43.12;97565.38;67944;1273;1016887;-68
2023/10/21 13:11:57;;;;;;;23.30;4.50;;;;;;;29.97;42.69;97568.59;67899;1273;1016291;-68
2023/10/21 13:15:02;;;;;;;23.80;5.40;;;;;;;29.90;42.02;97577.24;67918;1273;1016351;-68
2023/10/21 13:18:04;;;;;;;25.40;4.90;;;;;;;29.91;42.41;97580.77;67596;1273;1433534;-68
2023/10/21 13:21:07;;;;;;;23.80;5.60;;;;;;;29.77;42.14;97583.29;67913;1273;1016461;-68
2023/10/21 13:24:10;;;;;;;21.90;4.60;;;;;;;29.57;42.14;97592.14;67907;1273;1016387;-68
2023/10/21 13:27:12;;;;;;;24.10;5.60;;;;;;;29.48;42.86;97595.72;67933;1273;1016471;-68
2023/10/21 13:30:15;;;;;;;23.10;5.70;;;;;;;29.47;42.53;97602.89;67949;1273;1016242;-68
2023/10/21 13:33:17;;;;;;;22.50;4.80;;;;;;;29.42;42.48;97602.70;67932;1273;1015981;-67
2023/10/21 13:36:20;;;;;;;22.40;4.90;;;;;;;29.62;42.27;97603.82;67920;1273;1016461;-68
2023/10/21 13:39:23;;;;;;;21.40;4.40;;;;;;;29.58;42.10;97613.05;67942;1273;1016764;-68
2023/10/21 13:42:26;;;;;;;20.00;4.30;;;;;;;29.60;42.22;97617.83;67913;1273;1016777;-68
2023/10/21 13:45:28;;;;;;;25.10;4.80;;;;;;;29.68;42.61;97619.48;67944;1273;1016452;-68
2023/10/21 13:48:33;;;;;;;23.90;5.70;;;;;;;29.54;42.15;97622.83;67872;1273;1016379;-68
2023/10/21 13:51:35;;;;;;;22.80;5.40;;;;;;;29.59;43.40;97627.86;67863;1273;1016232;-67
2023/10/21 13:54:38;;;;;;;24.10;5.70;;;;;;;29.67;42.70;97631.69;67944;1273;1016522;-68
2023/10/21 13:57:40;;;;;;;25.50;5.30;;;;;;;29.63;42.84;97634.74;67946;1273;1015850;-68
2023/10/21 14:00:43;;;;;;;25.00;5.10;;;;;;;29.58;43.14;97640.60;67903;1273;1016188;-68
2023/10/21 14:03:45;;;;;;;22.90;4.60;;;;;;;29.54;42.44;97640.49;67916;1273;1018802;-65
2023/10/21 14:06:48;;;;;;;19.30;4.30;;;;;;;29.43;42.23;97641.62;67892;1273;1016395;-66
2023/10/21 14:09:52;;;;;;;23.60;5.20;;;;;;;29.42;42.18;97651.13;67932;1273;1016101;-67
2023/10/21 14:12:54;;;;;;;20.90;5.00;;;;;;;29.47;42.57;97659.89;67953;1273;1016499;-68
2023/10/21 14:15:58;;;;;;;20.80;5.00;;;;;;;29.62;42.82;97662.19;67940;1273;1016673;-67
2023/10/21 14:19:01;;;;;;;21.90;4.70;;;;;;;29.86;42.87;97660.55;67919;1273;1016858;-68
2023/10/21 14:22:04;;;;;;;22.90;5.10;;;;;;;29.98;42.58;97665.89;67901;1273;1018921;-68
2023/10/21 14:25:07;;;;;;;19.40;5.10;;;;;;;29.94;42.16;97672.16;67942;1273;1016464;-68
2023/10/21 14:28:12;;;;;;;22.90;5.20;;;;;;;29.90;42.14;97681.61;67919;1273;1016560;-68
2023/10/21 14:31:15;;;;;;;22.40;4.90;;;;;;;29.70;42.06;97685.48;67952;1273;1016111;-68
2023/10/21 14:34:17;;;;;;;19.80;4.30;;;;;;;29.53;42.48;97687.68;67898;1273;1015899;-68